Tuesday, December 18, 2018, 12:17 PM EST
Back to Local

KITH, Ithaca, Ithaca Tompkins Regional Airport

Location: Ithaca, NY, United States Lat: 42.491
Local Time: 12:17 PM EST (17:17 GMT) Lon: -76.458
Time Zone: US/Eastern Elev: 1099 ft

Show me the last for .
Show Decoded

2018-12-18 11:56 METAR KITH 181656Z 33015G19KT 10SM -SN OVC022 M06/M09 A3013 RMK AO2 SLP217 P0000
                 T10561094 =
2018-12-18 10:56 METAR KITH 181556Z 34007G17KT 8SM -SN OVC025 M05/M09 A3013 RMK AO2 SLP219 P0000
                 T10501094 =
2018-12-18 09:56 METAR KITH 181456Z 34008G17KT 310V010 9SM -SN OVC025 M05/M09 A3013 RMK AO2
                 SLP218 P0000 60000 T10501094 51024 =
2018-12-18 08:56 METAR KITH 181356Z 32012G21KT 9SM -SN OVC025 M05/M09 A3012 RMK AO2 SLP213 P0000
                 T10501094 =
2018-12-18 07:56 METAR KITH 181256Z 34010G20KT 9SM -SN OVC021 M05/M09 A3009 RMK AO2 SLP204 P0000
                 T10501089 =
2018-12-18 06:56 METAR KITH 181156Z 33013G18KT 9SM -SN BKN019 OVC024 M05/M08 A3006 RMK AO2 SLP193
                 P0000 60000 T10501078 11033 21050 53022 =
2018-12-18 06:30 METAR KITH 181130Z 31014G22KT 9SM -SN OVC022 M04/M08 A3005 RMK AO2 P0000 =
2018-12-18 05:56 METAR KITH 181056Z AUTO 30016G22KT 9SM -SN OVC022 M04/M08 A3003 RMK AO2 PK WND
                 32028/0958 SLP184 P0000 T10441078 =
2018-12-18 05:30 METAR KITH 181030Z AUTO 31016G26KT 9SM -SN BKN024 OVC032 M04/M08 A3003 RMK AO2
                 PK WND 32028/0958 P0000 =
2018-12-18 04:56 METAR KITH 180956Z AUTO 31019G24KT 9SM -SN FEW025 OVC035 M04/M08 A3001 RMK AO2
                 PK WND 31030/0933 SLP177 P0000 T10441083 =
2018-12-18 03:56 METAR KITH 180856Z AUTO 31018G28KT 8SM -SN FEW025 OVC033 M04/M08 A3000 RMK AO2
                 PK WND 31028/0850 SLP170 P0000 60000 T10441078 51020 =
2018-12-18 03:17 METAR KITH 180817Z AUTO 32016G25KT 9SM -SN FEW018 SCT024 OVC037 M04/M08 A2999
                 RMK AO2 P0000 =
2018-12-18 02:56 METAR KITH 180756Z AUTO 32012G18KT 5SM -SN BR SCT018 BKN023 OVC033 M04/M07 A2998
                 RMK AO2 SNB01 SLP166 P0000 T10441067 =
2018-12-18 01:56 METAR KITH 180656Z AUTO 31016G25KT 10SM OVC025 M04/M08 A2995 RMK AO2 PK WND
                 31028/0620 SLP155 T10391078 =
2018-12-18 00:56 METAR KITH 180556Z AUTO 31019G27KT 10SM OVC027 M03/M07 A2994 RMK AO2 PK WND
                 30030/0540 SNE22 SLP149 P0000 60000 T10331072 10006 21033 53018 =
2018-12-18 00:41 METAR KITH 180541Z AUTO 31021G30KT 10SM OVC029 M03/M07 A2993 RMK AO2 PK WND
                 30030/0540 SNE22 P0000 =
2018-12-18 00:27 METAR KITH 180527Z AUTO 31019G25KT 9SM FEW022 OVC031 M03/M07 A2993 RMK AO2 SNE22
                 P0000 =
2018-12-17 23:56 METAR KITH 180456Z AUTO 31016G25KT 9SM -SN OVC024 M02/M06 A2991 RMK AO2 PK WND
                 29030/0440 SLP140 P0000 T10221061 400221022 =
2018-12-17 22:56 METAR KITH 180356Z AUTO 31019G27KT 9SM -SN OVC026 M02/M06 A2990 RMK AO2 PK WND
                 30034/0257 SNB00 SLP134 P0000 T10171056 =
2018-12-17 22:24 METAR KITH 180324Z AUTO 31023G32KT 9SM -SN OVC028 M01/M06 A2989 RMK AO2 PK WND
                 30034/0257 SNB00 P0000 =
2018-12-17 21:56 METAR KITH 180256Z 30026G31KT 9SM BKN030 OVC045 M01/M06 A2988 RMK AO2 PK WND
                 32038/0238 SNE52 SLP129 P0000 60000 T10111056 51014 =
2018-12-17 20:56 METAR KITH 180156Z 32021G29KT 9SM -SN BKN027 OVC033 00/M04 A2986 RMK AO2 PK WND
                 31033/0057 SLP124 P0000 T00001044 =
2018-12-17 19:56 METAR KITH 180056Z 30021G33KT 10SM -SN OVC021 01/M03 A2985 RMK AO2 PK WND
                 29033/0053 SLP120 P0000 T00061033 =
2018-12-17 18:56 METAR KITH 172356Z 30017G27KT 7SM -SN OVC012 00/M02 A2984 RMK AO2 PK WND
                 28027/2349 SLP116 P0000 60000 T00001017 10017 20000 53017 =
2018-12-17 17:56 METAR KITH 172256Z 30018G26KT 8SM -SN OVC015 01/M02 A2982 RMK AO2 PK WND
                 29027/2237 SLP108 P0000 T00061017 =
2018-12-17 16:56 METAR KITH 172156Z 31020G24KT 9SM -SN BKN016 OVC025 01/M02 A2980 RMK AO2 PK WND
                 30027/2110 SLP101 P0000 T00061017 =
2018-12-17 15:56 METAR KITH 172056Z 30014G26KT 9SM -SN OVC018 01/M02 A2979 RMK AO2 PK WND
                 30026/2048 SLP096 P0000 60000 T00111017 53014 =
2018-12-17 14:56 METAR KITH 171956Z 30018G26KT 10SM -SN OVC018 01/M02 A2976 RMK AO2 PK WND
                 30027/1937 SLP086 P0000 T00111017 =
2018-12-17 13:56 METAR KITH 171856Z 29019G29KT 10SM -SN OVC022 02/M02 A2974 RMK AO2 PK WND
                 30029/1851 RAE53SNB53 SLP082 P0000 T00171017 =
2018-12-17 12:56 METAR KITH 171756Z 30019G26KT 10SM -RA OVC023 02/M02 A2974 RMK AO2 PK WND
                 28026/1753 RAB16 SLP081 P0000 60000 T00171017 10022 21022 56009 =

Support USWX by starting your Amazon purchase here.